Madeline — WDF2406 — position and weather

sailwx.info

Track history (hours):
 
Tides and Currents Weather Stations Pressure Air Temp Water Temp Dewpoint Dewpoint Depression Visibility Wind Speed Wind Dir Waves Ship Positions

Madeline

Owner: Enterprise Marine Services, LLC, San Antonio, TX. More information available from US FCC via Universal Licensing System and Coast Guard Vessel Documentation Center.

Last reported at 2015-Aug-27 23:33 UTC. Time now 2015-Aug-28 17:15 UTC.
Position N 29°32' W 094°54'.

Length 30 m; draft 8 m.

Type: Tug. MMSI: 367350460.

Date/timePositionNaut miles runAvg speedWind from/ knotsBaromVisibWave heightAir tempDewpointWater temp
2015-Aug-27 23:33N 29°32' W 094°54'8 8.1
2015-Aug-27 22:33N 29°39' W 094°58'7 6.9
2015-Aug-27 21:33N 29°44' W 095°04'3 0.3
2015-Aug-27 11:33N 29°47' W 095°05'0 0.0
2015-Aug-27 10:09N 29°47' W 095°05'0 0.0
2015-Aug-27 09:33N 29°47' W 095°05'0 0.0
2015-Aug-27 08:32N 29°47' W 095°05'0 0.0
2015-Aug-27 07:32N 29°47' W 095°05'1 0.1
2015-Aug-26 23:30N 29°47' W 095°05'1 0.0
2015-Aug-26 01:17N 29°47' W 095°05'0 0.0
2015-Aug-25 18:32N 29°47' W 095°05'0 0.0
2015-Aug-25 12:14N 29°47' W 095°05'0 0.0
2015-Aug-25 05:32N 29°47' W 095°05'0 0.0
2015-Aug-24 05:24N 29°47' W 095°05'1 0.2
2015-Aug-24 01:33N 29°47' W 095°04'1 1.4
2015-Aug-24 00:30N 29°46' W 095°05'7 7.2
2015-Aug-23 23:33N 29°41' W 094°59'8 7.7
2015-Aug-23 22:33N 29°34' W 094°55'  
2015-Aug-20 18:33N 29°32' W 090°49'4 4.2
2015-Aug-20 17:33N 29°34' W 090°44'2 1.6
2015-Aug-20 16:33N 29°35' W 090°43'2 2.0
2015-Aug-20 15:33N 29°37' W 090°42'0 0.0
2015-Aug-20 14:33N 29°37' W 090°42'2 2.2
2015-Aug-20 13:33N 29°36' W 090°40'5 4.6
2015-Aug-20 12:33N 29°34' W 090°35'13 4.1
2015-Aug-20 09:32N 29°37' W 090°21'  
Track history (hours):
 
Tides and Currents Weather Stations Pressure Air Temp Water Temp Dewpoint Dewpoint Depression Visibility Wind Speed Wind Dir Waves Ship Positions

Madeline

Owner: Enterprise Marine Services, LLC, San Antonio, TX. More information available from US FCC via Universal Licensing System and Coast Guard Vessel Documentation Center.

Last reported at 2015-Aug-27 23:33 UTC. Time now 2015-Aug-28 17:15 UTC.
Position N 29°32' W 094°54'.

Length 30 m; draft 8 m.

Type: Tug. MMSI: 367350460.

Date/timePositionNaut miles runAvg speedWind from/ knotsBaromVisibWave heightAir tempDewpointWater temp
2015-Aug-27 23:33N 29°32' W 094°54'8 8.1
2015-Aug-27 22:33N 29°39' W 094°58'7 6.9
2015-Aug-27 21:33N 29°44' W 095°04'3 0.3
2015-Aug-27 11:33N 29°47' W 095°05'0 0.0
2015-Aug-27 10:09N 29°47' W 095°05'0 0.0
2015-Aug-27 09:33N 29°47' W 095°05'0 0.0
2015-Aug-27 08:32N 29°47' W 095°05'0 0.0
2015-Aug-27 07:32N 29°47' W 095°05'1 0.1
2015-Aug-26 23:30N 29°47' W 095°05'1 0.0
2015-Aug-26 01:17N 29°47' W 095°05'0 0.0
2015-Aug-25 18:32N 29°47' W 095°05'0 0.0
2015-Aug-25 12:14N 29°47' W 095°05'0 0.0
2015-Aug-25 05:32N 29°47' W 095°05'0 0.0
2015-Aug-24 05:24N 29°47' W 095°05'1 0.2
2015-Aug-24 01:33N 29°47' W 095°04'1 1.4
2015-Aug-24 00:30N 29°46' W 095°05'7 7.2
2015-Aug-23 23:33N 29°41' W 094°59'8 7.7
2015-Aug-23 22:33N 29°34' W 094°55'  
2015-Aug-20 18:33N 29°32' W 090°49'4 4.2
2015-Aug-20 17:33N 29°34' W 090°44'2 1.6
2015-Aug-20 16:33N 29°35' W 090°43'2 2.0
2015-Aug-20 15:33N 29°37' W 090°42'0 0.0
2015-Aug-20 14:33N 29°37' W 090°42'2 2.2
2015-Aug-20 13:33N 29°36' W 090°40'5 4.6
2015-Aug-20 12:33N 29°34' W 090°35'13 4.1
2015-Aug-20 09:32N 29°37' W 090°21'  

Dump ship's entire track history